Accueil
METAR-TAF:

METAR-TAF

Aéroports :

Base aérienne de Schaffen

Diest, Belgique

latitude: 51-00N, longitude: 005-04E, altitude: 30 m

Observation

Le bulletin a été fait il y a 17 minutes, à 04:05 UTC
Vent 2 kt de direction variable
Température 11°C
Humidité 100%
Pression 1008 hPa
Visibilité: 4700 m
brume

METAR: EBDT 280405Z AUTO VRB02KT 4700 BR BKN042/// 11/11 Q1008 GRN

Heure: 06:22 (04:22 UTC)


TAF: absent

Observations et prévisions météorologiques de plus de 4000 aéroports (messages METAR et TAF).

Les stations disponibles sont représentées par des disques jaunes et rouges sur la carte.

Passer la souris dessus pour voir le nom de la station.

Cliquer dessus pour voir les observations et prévisions météorologiques.

Pour changer de carte: cliquez sur les boutons verts avec une croix noire pour zoomer, sur le bouton vert avec un tiret pour effectuer un zoom arrière, ou sur les flèches vertes pour les cartes adjacentes.


METAR-TAF: